sensor_id;sensor_type;location;lat;lon;timestamp;pressure;altitude;pressure_sealevel;temperature;humidity
10587;BME280;5341;47.606;7.576;2023-05-18T00:01:14;99232.34;;;14.67;49.52
10587;BME280;5341;47.606;7.576;2023-05-18T00:03:42;99235.19;;;14.65;49.78
10587;BME280;5341;47.606;7.576;2023-05-18T00:06:09;99232.72;;;14.63;49.70
10587;BME280;5341;47.606;7.576;2023-05-18T00:08:37;99222.97;;;14.62;49.68
10587;BME280;5341;47.606;7.576;2023-05-18T00:11:05;99220.69;;;14.59;49.82
10587;BME280;5341;47.606;7.576;2023-05-18T00:13:32;99218.19;;;14.58;49.47
10587;BME280;5341;47.606;7.576;2023-05-18T00:16:00;99217.75;;;14.54;49.62
10587;BME280;5341;47.606;7.576;2023-05-18T00:18:29;99217.94;;;14.53;49.63
10587;BME280;5341;47.606;7.576;2023-05-18T00:20:56;99214.81;;;14.49;49.49
10587;BME280;5341;47.606;7.576;2023-05-18T00:23:26;99215.84;;;14.48;49.58
10587;BME280;5341;47.606;7.576;2023-05-18T00:25:56;99209.00;;;14.46;49.54
10587;BME280;5341;47.606;7.576;2023-05-18T00:28:23;99211.88;;;14.44;49.44
10587;BME280;5341;47.606;7.576;2023-05-18T00:30:51;99215.56;;;14.43;49.65
10587;BME280;5341;47.606;7.576;2023-05-18T00:33:19;99208.53;;;14.42;49.78
10587;BME280;5341;47.606;7.576;2023-05-18T00:35:48;99207.88;;;14.40;49.73
10587;BME280;5341;47.606;7.576;2023-05-18T00:38:16;99199.81;;;14.40;49.70
10587;BME280;5341;47.606;7.576;2023-05-18T00:40:43;99200.19;;;14.37;49.72
10587;BME280;5341;47.606;7.576;2023-05-18T00:43:11;99211.16;;;14.35;49.73
10587;BME280;5341;47.606;7.576;2023-05-18T00:45:38;99212.59;;;14.31;49.43
10587;BME280;5341;47.606;7.576;2023-05-18T00:48:06;99203.03;;;14.29;49.75
10587;BME280;5341;47.606;7.576;2023-05-18T00:50:33;99207.78;;;14.27;49.68
10587;BME280;5341;47.606;7.576;2023-05-18T00:53:02;99200.94;;;14.24;49.78
10587;BME280;5341;47.606;7.576;2023-05-18T00:55:30;99196.59;;;14.23;49.64
10587;BME280;5341;47.606;7.576;2023-05-18T00:57:58;99204.03;;;14.21;49.65
10587;BME280;5341;47.606;7.576;2023-05-18T01:00:27;99201.53;;;14.20;49.51
10587;BME280;5341;47.606;7.576;2023-05-18T01:02:55;99192.63;;;14.19;49.64
10587;BME280;5341;47.606;7.576;2023-05-18T01:05:22;99198.22;;;14.18;49.66
10587;BME280;5341;47.606;7.576;2023-05-18T01:07:50;99199.19;;;14.17;49.75
10587;BME280;5341;47.606;7.576;2023-05-18T01:10:19;99198.38;;;14.16;49.78
10587;BME280;5341;47.606;7.576;2023-05-18T01:12:50;99202.91;;;14.16;49.84
10587;BME280;5341;47.606;7.576;2023-05-18T01:15:22;99203.13;;;14.14;49.73
10587;BME280;5341;47.606;7.576;2023-05-18T01:18:00;99206.84;;;14.13;49.65
10587;BME280;5341;47.606;7.576;2023-05-18T01:20:31;99205.19;;;14.12;49.86
10587;BME280;5341;47.606;7.576;2023-05-18T01:23:16;99195.44;;;14.11;49.98
10587;BME280;5341;47.606;7.576;2023-05-18T01:26:02;99188.59;;;14.08;49.72
10587;BME280;5341;47.606;7.576;2023-05-18T01:28:33;99191.50;;;14.07;49.72
10587;BME280;5341;47.606;7.576;2023-05-18T01:31:00;99187.16;;;14.06;49.69
10587;BME280;5341;47.606;7.576;2023-05-18T01:33:31;99186.47;;;14.04;49.88
10587;BME280;5341;47.606;7.576;2023-05-18T01:35:58;99189.38;;;14.02;49.78
10587;BME280;5341;47.606;7.576;2023-05-18T01:38:27;99178.59;;;14.02;49.78
10587;BME280;5341;47.606;7.576;2023-05-18T01:41:13;99185.84;;;14.02;49.73
10587;BME280;5341;47.606;7.576;2023-05-18T01:43:49;99185.22;;;14.00;49.82
10587;BME280;5341;47.606;7.576;2023-05-18T01:46:34;99183.56;;;13.99;49.74
10587;BME280;5341;47.606;7.576;2023-05-18T01:49:08;99179.19;;;13.98;49.89
10587;BME280;5341;47.606;7.576;2023-05-18T01:51:42;99175.06;;;13.95;49.91
10587;BME280;5341;47.606;7.576;2023-05-18T01:54:10;99168.00;;;13.94;49.97
10587;BME280;5341;47.606;7.576;2023-05-18T01:56:41;99172.56;;;13.94;49.69
10587;BME280;5341;47.606;7.576;2023-05-18T01:59:10;99172.72;;;13.92;49.90
10587;BME280;5341;47.606;7.576;2023-05-18T02:01:38;99173.75;;;13.91;49.93
10587;BME280;5341;47.606;7.576;2023-05-18T02:04:07;99164.03;;;13.90;49.85
10587;BME280;5341;47.606;7.576;2023-05-18T02:06:35;99166.09;;;13.88;49.76
10587;BME280;5341;47.606;7.576;2023-05-18T02:09:03;99165.25;;;13.88;49.92
10587;BME280;5341;47.606;7.576;2023-05-18T02:11:30;99160.06;;;13.86;49.81
10587;BME280;5341;47.606;7.576;2023-05-18T02:13:59;99166.47;;;13.85;50.04
10587;BME280;5341;47.606;7.576;2023-05-18T02:16:27;99154.91;;;13.85;49.89
10587;BME280;5341;47.606;7.576;2023-05-18T02:18:54;99160.66;;;13.82;49.96
10587;BME280;5341;47.606;7.576;2023-05-18T02:21:22;99150.91;;;13.81;49.80
10587;BME280;5341;47.606;7.576;2023-05-18T02:23:50;99152.13;;;13.78;49.82
10587;BME280;5341;47.606;7.576;2023-05-18T02:26:17;99152.31;;;13.76;49.99
10587;BME280;5341;47.606;7.576;2023-05-18T02:28:51;99159.75;;;13.74;49.76
10587;BME280;5341;47.606;7.576;2023-05-18T02:31:20;99154.56;;;13.73;49.80
10587;BME280;5341;47.606;7.576;2023-05-18T02:33:47;99153.94;;;13.71;49.63
10587;BME280;5341;47.606;7.576;2023-05-18T02:36:15;99155.13;;;13.68;49.65
10587;BME280;5341;47.606;7.576;2023-05-18T02:38:43;99141.06;;;13.66;49.68
10587;BME280;5341;47.606;7.576;2023-05-18T02:41:11;99155.53;;;13.65;49.82
10587;BME280;5341;47.606;7.576;2023-05-18T02:43:38;99155.72;;;13.64;49.88
10587;BME280;5341;47.606;7.576;2023-05-18T02:46:07;99161.09;;;13.64;49.72
10587;BME280;5341;47.606;7.576;2023-05-18T02:48:36;99145.38;;;13.61;49.96
10587;BME280;5341;47.606;7.576;2023-05-18T02:51:03;99142.88;;;13.59;49.67
10587;BME280;5341;47.606;7.576;2023-05-18T02:53:32;99144.94;;;13.57;49.99
10587;BME280;5341;47.606;7.576;2023-05-18T02:56:05;99152.13;;;13.57;49.90
10587;BME280;5341;47.606;7.576;2023-05-18T02:58:42;99147.78;;;13.56;49.83
10587;BME280;5341;47.606;7.576;2023-05-18T03:01:17;99148.81;;;13.55;49.80
10587;BME280;5341;47.606;7.576;2023-05-18T03:03:51;99141.97;;;13.52;50.00
10587;BME280;5341;47.606;7.576;2023-05-18T03:06:19;99144.03;;;13.50;49.93
10587;BME280;5341;47.606;7.576;2023-05-18T03:08:51;99143.38;;;13.48;49.87
10587;BME280;5341;47.606;7.576;2023-05-18T03:11:21;99149.78;;;13.47;49.85
10587;BME280;5341;47.606;7.576;2023-05-18T03:13:49;99149.97;;;13.45;49.62
10587;BME280;5341;47.606;7.576;2023-05-18T03:16:16;99153.66;;;13.44;50.03
10587;BME280;5341;47.606;7.576;2023-05-18T03:18:45;99145.78;;;13.43;49.64
10587;BME280;5341;47.606;7.576;2023-05-18T03:21:14;99159.22;;;13.43;49.90
10587;BME280;5341;47.606;7.576;2023-05-18T03:23:41;99158.59;;;13.41;49.64
10587;BME280;5341;47.606;7.576;2023-05-18T03:26:08;99152.59;;;13.39;49.85
10587;BME280;5341;47.606;7.576;2023-05-18T03:28:38;99157.97;;;13.39;49.99
10587;BME280;5341;47.606;7.576;2023-05-18T03:31:05;99156.28;;;13.38;49.89
10587;BME280;5341;47.606;7.576;2023-05-18T03:33:32;99160.00;;;13.37;50.01
10587;BME280;5341;47.606;7.576;2023-05-18T03:36:02;99160.19;;;13.35;50.00
10587;BME280;5341;47.606;7.576;2023-05-18T03:38:32;99152.13;;;13.35;49.71
10587;BME280;5341;47.606;7.576;2023-05-18T03:41:04;99157.72;;;13.34;49.85
10587;BME280;5341;47.606;7.576;2023-05-18T03:43:31;99152.69;;;13.31;50.09
10587;BME280;5341;47.606;7.576;2023-05-18T03:46:00;99149.38;;;13.29;49.80
10587;BME280;5341;47.606;7.576;2023-05-18T03:48:28;99152.25;;;13.27;49.90
10587;BME280;5341;47.606;7.576;2023-05-18T03:50:56;99149.75;;;13.26;49.91
10587;BME280;5341;47.606;7.576;2023-05-18T03:53:26;99167.91;;;13.24;49.84
10587;BME280;5341;47.606;7.576;2023-05-18T03:55:56;99160.06;;;13.22;49.67
10587;BME280;5341;47.606;7.576;2023-05-18T03:58:23;99163.56;;;13.23;49.73
10587;BME280;5341;47.606;7.576;2023-05-18T04:00:52;99166.44;;;13.21;49.90
10587;BME280;5341;47.606;7.576;2023-05-18T04:03:21;99163.94;;;13.19;49.67
10587;BME280;5341;47.606;7.576;2023-05-18T04:05:50;99166.63;;;13.19;50.02
10587;BME280;5341;47.606;7.576;2023-05-18T04:08:18;99164.28;;;13.16;49.73
10587;BME280;5341;47.606;7.576;2023-05-18T04:10:45;99163.44;;;13.16;49.92
10587;BME280;5341;47.606;7.576;2023-05-18T04:13:14;99173.38;;;13.15;49.83
10587;BME280;5341;47.606;7.576;2023-05-18T04:15:41;99176.25;;;13.14;49.78
10587;BME280;5341;47.606;7.576;2023-05-18T04:18:09;99183.47;;;13.13;49.85
10587;BME280;5341;47.606;7.576;2023-05-18T04:20:37;99181.81;;;13.12;49.88
10587;BME280;5341;47.606;7.576;2023-05-18T04:23:06;99189.84;;;13.12;50.11
10587;BME280;5341;47.606;7.576;2023-05-18T04:25:35;99189.84;;;13.12;50.00
10587;BME280;5341;47.606;7.576;2023-05-18T04:28:04;99196.25;;;13.11;49.67
10587;BME280;5341;47.606;7.576;2023-05-18T04:30:34;99192.72;;;13.11;49.66
10587;BME280;5341;47.606;7.576;2023-05-18T04:33:02;99187.38;;;13.11;50.25
10587;BME280;5341;47.606;7.576;2023-05-18T04:35:31;99189.22;;;13.10;50.19
10587;BME280;5341;47.606;7.576;2023-05-18T04:37:59;99176.81;;;13.09;50.12
10587;BME280;5341;47.606;7.576;2023-05-18T04:40:27;99184.19;;;13.07;50.11
10587;BME280;5341;47.606;7.576;2023-05-18T04:42:59;99197.63;;;13.07;49.89
10587;BME280;5341;47.606;7.576;2023-05-18T04:45:28;99187.72;;;13.08;49.83
10587;BME280;5341;47.606;7.576;2023-05-18T04:47:58;99193.94;;;13.08;50.24
10587;BME280;5341;47.606;7.576;2023-05-18T04:50:26;99197.47;;;13.09;50.36
10587;BME280;5341;47.606;7.576;2023-05-18T04:52:55;99195.59;;;13.09;50.24
10587;BME280;5341;47.606;7.576;2023-05-18T04:55:27;99205.53;;;13.09;50.40
10587;BME280;5341;47.606;7.576;2023-05-18T04:58:03;99199.31;;;13.08;50.37
10587;BME280;5341;47.606;7.576;2023-05-18T05:00:31;99201.13;;;13.08;49.91
10587;BME280;5341;47.606;7.576;2023-05-18T05:02:59;99203.81;;;13.08;50.56
10587;BME280;5341;47.606;7.576;2023-05-18T05:05:28;99209.19;;;13.08;50.08
10587;BME280;5341;47.606;7.576;2023-05-18T05:07:56;99211.06;;;13.07;50.33
10587;BME280;5341;47.606;7.576;2023-05-18T05:10:23;99217.25;;;13.08;50.25
10587;BME280;5341;47.606;7.576;2023-05-18T05:12:53;99219.09;;;13.07;50.50
10587;BME280;5341;47.606;7.576;2023-05-18T05:15:20;99222.81;;;13.06;50.45
10587;BME280;5341;47.606;7.576;2023-05-18T05:17:49;99219.28;;;13.06;50.07
10587;BME280;5341;47.606;7.576;2023-05-18T05:20:18;99215.59;;;13.07;50.33
10587;BME280;5341;47.606;7.576;2023-05-18T05:22:46;99214.75;;;13.06;50.65
10587;BME280;5341;47.606;7.576;2023-05-18T05:25:16;99221.78;;;13.07;50.60
10587;BME280;5341;47.606;7.576;2023-05-18T05:27:44;99218.13;;;13.08;50.31
10587;BME280;5341;47.606;7.576;2023-05-18T05:30:12;99228.84;;;13.08;50.70
10587;BME280;5341;47.606;7.576;2023-05-18T05:32:42;99217.09;;;13.09;50.62
10587;BME280;5341;47.606;7.576;2023-05-18T05:35:09;99225.16;;;13.09;50.39
10587;BME280;5341;47.606;7.576;2023-05-18T05:37:38;99225.97;;;13.10;50.49
10587;BME280;5341;47.606;7.576;2023-05-18T05:40:07;99234.03;;;13.10;50.68
10587;BME280;5341;47.606;7.576;2023-05-18T05:42:40;99217.72;;;13.11;50.71
10587;BME280;5341;47.606;7.576;2023-05-18T05:45:09;99221.06;;;13.13;50.64
10587;BME280;5341;47.606;7.576;2023-05-18T05:47:47;99220.22;;;13.13;50.90
10587;BME280;5341;47.606;7.576;2023-05-18T05:50:17;99223.56;;;13.15;50.87
10587;BME280;5341;47.606;7.576;2023-05-18T05:52:51;99215.50;;;13.15;51.02
10587;BME280;5341;47.606;7.576;2023-05-18T05:55:19;99223.34;;;13.16;50.99
10587;BME280;5341;47.606;7.576;2023-05-18T05:57:47;99223.16;;;13.18;50.64
10587;BME280;5341;47.606;7.576;2023-05-18T06:00:15;99220.47;;;13.18;50.43
10587;BME280;5341;47.606;7.576;2023-05-18T06:02:56;99217.47;;;13.21;50.71
10587;BME280;5341;47.606;7.576;2023-05-18T06:05:44;99216.66;;;13.21;51.13
10587;BME280;5341;47.606;7.576;2023-05-18T06:08:16;99223.50;;;13.23;50.67
10587;BME280;5341;47.606;7.576;2023-05-18T06:10:45;99224.13;;;13.25;51.09
10587;BME280;5341;47.606;7.576;2023-05-18T06:13:12;99221.88;;;13.29;51.11
10587;BME280;5341;47.606;7.576;2023-05-18T06:16:00;99215.13;;;13.33;51.35
10587;BME280;5341;47.606;7.576;2023-05-18T06:18:28;99218.28;;;13.36;50.80
10587;BME280;5341;47.606;7.576;2023-05-18T06:21:00;99216.88;;;13.40;50.93
10587;BME280;5341;47.606;7.576;2023-05-18T06:23:29;99212.75;;;13.44;50.99
10587;BME280;5341;47.606;7.576;2023-05-18T06:26:16;99218.41;;;13.49;50.90
10587;BME280;5341;47.606;7.576;2023-05-18T06:28:44;99221.34;;;13.55;51.29
10587;BME280;5341;47.606;7.576;2023-05-18T06:31:22;99215.44;;;13.59;51.23
10587;BME280;5341;47.606;7.576;2023-05-18T06:33:54;99223.75;;;13.64;50.97
10587;BME280;5341;47.606;7.576;2023-05-18T06:36:22;99219.28;;;13.71;51.11
10587;BME280;5341;47.606;7.576;2023-05-18T06:38:51;99224.72;;;13.78;51.25
10587;BME280;5341;47.606;7.576;2023-05-18T06:41:18;99225.81;;;13.84;51.28
10587;BME280;5341;47.606;7.576;2023-05-18T06:43:46;99228.75;;;13.89;51.19
10587;BME280;5341;47.606;7.576;2023-05-18T06:46:28;99227.16;;;13.94;51.30
10587;BME280;5341;47.606;7.576;2023-05-18T06:49:01;99235.28;;;14.01;51.38
10587;BME280;5341;47.606;7.576;2023-05-18T06:51:28;99222.09;;;14.06;51.29
10587;BME280;5341;47.606;7.576;2023-05-18T06:53:58;99225.47;;;14.15;51.29
10587;BME280;5341;47.606;7.576;2023-05-18T06:56:25;99228.03;;;14.23;51.40
10587;BME280;5341;47.606;7.576;2023-05-18T06:58:54;99226.25;;;14.30;51.37
10587;BME280;5341;47.606;7.576;2023-05-18T07:01:22;99232.28;;;14.38;51.35
10587;BME280;5341;47.606;7.576;2023-05-18T07:03:49;99227.00;;;14.45;51.08
10587;BME280;5341;47.606;7.576;2023-05-18T07:06:17;99221.66;;;14.52;50.83
10587;BME280;5341;47.606;7.576;2023-05-18T07:08:44;99229.78;;;14.58;50.56
10587;BME280;5341;47.606;7.576;2023-05-18T07:11:14;99225.25;;;14.65;50.41
10587;BME280;5341;47.606;7.576;2023-05-18T07:13:41;99231.75;;;14.71;50.41
10587;BME280;5341;47.606;7.576;2023-05-18T07:16:09;99230.56;;;14.80;50.54
10587;BME280;5341;47.606;7.576;2023-05-18T07:18:37;99221.69;;;14.86;50.73
10587;BME280;5341;47.606;7.576;2023-05-18T07:21:06;99229.59;;;14.94;50.91
10587;BME280;5341;47.606;7.576;2023-05-18T07:23:34;99228.63;;;15.02;50.84
10587;BME280;5341;47.606;7.576;2023-05-18T07:26:01;99225.13;;;15.08;50.71
10587;BME280;5341;47.606;7.576;2023-05-18T07:28:30;99226.00;;;15.15;50.82
10587;BME280;5341;47.606;7.576;2023-05-18T07:30:57;99225.78;;;15.23;50.75
10587;BME280;5341;47.606;7.576;2023-05-18T07:33:24;99219.41;;;15.31;50.89
10587;BME280;5341;47.606;7.576;2023-05-18T07:35:52;99219.25;;;15.39;49.88
10587;BME280;5341;47.606;7.576;2023-05-18T07:38:19;99223.59;;;15.47;49.44
10587;BME280;5341;47.606;7.576;2023-05-18T07:40:46;99219.28;;;15.52;48.92
10587;BME280;5341;47.606;7.576;2023-05-18T07:43:13;99218.47;;;15.59;48.59
10587;BME280;5341;47.606;7.576;2023-05-18T07:45:42;99212.69;;;15.62;48.55
10587;BME280;5341;47.606;7.576;2023-05-18T07:48:09;99224.34;;;15.69;48.71
10587;BME280;5341;47.606;7.576;2023-05-18T07:50:37;99217.72;;;15.78;48.34
10587;BME280;5341;47.606;7.576;2023-05-18T07:53:04;99219.38;;;15.86;48.44
10587;BME280;5341;47.606;7.576;2023-05-18T07:55:32;99210.91;;;15.89;47.82
10587;BME280;5341;47.606;7.576;2023-05-18T07:57:59;99207.16;;;15.96;47.97
10587;BME280;5341;47.606;7.576;2023-05-18T08:00:27;99207.78;;;16.05;47.80
10587;BME280;5341;47.606;7.576;2023-05-18T08:02:56;99206.78;;;16.13;47.69
10587;BME280;5341;47.606;7.576;2023-05-18T08:05:25;99205.72;;;16.20;47.82
10587;BME280;5341;47.606;7.576;2023-05-18T08:07:53;99205.50;;;16.28;47.74
10587;BME280;5341;47.606;7.576;2023-05-18T08:10:20;99204.06;;;16.39;47.33
10587;BME280;5341;47.606;7.576;2023-05-18T08:12:50;99205.09;;;16.45;47.03
10587;BME280;5341;47.606;7.576;2023-05-18T08:15:18;99207.78;;;16.51;47.39
10587;BME280;5341;47.606;7.576;2023-05-18T08:17:46;99211.72;;;16.62;47.15
10587;BME280;5341;47.606;7.576;2023-05-18T08:20:15;99207.78;;;16.71;46.70
10587;BME280;5341;47.606;7.576;2023-05-18T08:22:42;99207.94;;;16.83;46.88
10587;BME280;5341;47.606;7.576;2023-05-18T08:25:10;99207.31;;;16.94;46.80
10587;BME280;5341;47.606;7.576;2023-05-18T08:27:37;99207.91;;;17.03;46.52
10587;BME280;5341;47.606;7.576;2023-05-18T08:30:05;99209.34;;;17.12;46.24
10587;BME280;5341;47.606;7.576;2023-05-18T08:32:33;99210.94;;;17.26;46.53
10587;BME280;5341;47.606;7.576;2023-05-18T08:35:02;99209.66;;;17.35;46.27
10587;BME280;5341;47.606;7.576;2023-05-18T08:37:31;99209.41;;;17.43;46.56
10587;BME280;5341;47.606;7.576;2023-05-18T08:39:58;99202.25;;;17.55;46.27
10587;BME280;5341;47.606;7.576;2023-05-18T08:42:29;99204.50;;;17.65;46.88
10587;BME280;5341;47.606;7.576;2023-05-18T08:45:06;99196.94;;;17.80;45.85
10587;BME280;5341;47.606;7.576;2023-05-18T08:47:36;99195.81;;;17.95;45.68
10587;BME280;5341;47.606;7.576;2023-05-18T08:50:05;99193.88;;;18.02;46.26
10587;BME280;5341;47.606;7.576;2023-05-18T08:52:35;99189.25;;;18.09;46.52
10587;BME280;5341;47.606;7.576;2023-05-18T08:55:04;99188.09;;;18.23;45.60
10587;BME280;5341;47.606;7.576;2023-05-18T08:57:34;99185.28;;;18.36;44.44
10587;BME280;5341;47.606;7.576;2023-05-18T09:00:03;99184.19;;;18.44;44.27
10587;BME280;5341;47.606;7.576;2023-05-18T09:02:32;99181.56;;;18.56;44.21
10587;BME280;5341;47.606;7.576;2023-05-18T09:05:00;99179.59;;;18.63;45.12
10587;BME280;5341;47.606;7.576;2023-05-18T09:07:28;99181.22;;;18.70;46.28
10587;BME280;5341;47.606;7.576;2023-05-18T09:09:57;99168.59;;;18.83;43.68
10587;BME280;5341;47.606;7.576;2023-05-18T09:12:27;99173.03;;;18.95;43.03
10587;BME280;5341;47.606;7.576;2023-05-18T09:14:54;99172.56;;;18.98;44.43
10587;BME280;5341;47.606;7.576;2023-05-18T09:17:23;99172.28;;;19.07;43.73
10587;BME280;5341;47.606;7.576;2023-05-18T09:19:50;99175.28;;;19.17;45.07
10587;BME280;5341;47.606;7.576;2023-05-18T09:22:17;99178.50;;;19.25;44.26
10587;BME280;5341;47.606;7.576;2023-05-18T09:24:45;99177.53;;;19.50;43.20
10587;BME280;5341;47.606;7.576;2023-05-18T09:27:14;99179.31;;;19.63;42.30
10587;BME280;5341;47.606;7.576;2023-05-18T09:29:51;99173.88;;;19.74;42.90
10587;BME280;5341;47.606;7.576;2023-05-18T09:32:19;99175.56;;;19.75;44.38
10587;BME280;5341;47.606;7.576;2023-05-18T09:34:47;99177.44;;;19.75;42.86
10587;BME280;5341;47.606;7.576;2023-05-18T09:37:15;99179.59;;;19.84;42.23
10587;BME280;5341;47.606;7.576;2023-05-18T09:39:43;99172.03;;;19.86;42.78
10587;BME280;5341;47.606;7.576;2023-05-18T09:42:11;99167.56;;;19.92;41.88
10587;BME280;5341;47.606;7.576;2023-05-18T09:44:40;99167.47;;;20.10;41.14
10587;BME280;5341;47.606;7.576;2023-05-18T09:47:08;99179.16;;;20.11;41.55
10587;BME280;5341;47.606;7.576;2023-05-18T09:49:35;99158.38;;;20.05;41.06
10587;BME280;5341;47.606;7.576;2023-05-18T09:52:06;99161.81;;;20.00;40.82
10587;BME280;5341;47.606;7.576;2023-05-18T09:54:35;99162.03;;;19.99;41.71
10587;BME280;5341;47.606;7.576;2023-05-18T09:57:04;99159.53;;;19.97;43.04
10587;BME280;5341;47.606;7.576;2023-05-18T09:59:31;99155.19;;;19.96;42.03
10587;BME280;5341;47.606;7.576;2023-05-18T10:02:04;99152.84;;;20.00;41.51
10587;BME280;5341;47.606;7.576;2023-05-18T10:04:40;99151.78;;;20.01;40.85
10587;BME280;5341;47.606;7.576;2023-05-18T10:07:09;99148.91;;;19.96;40.80
10587;BME280;5341;47.606;7.576;2023-05-18T10:09:38;99145.28;;;19.90;40.42
10587;BME280;5341;47.606;7.576;2023-05-18T10:12:10;99150.31;;;19.86;40.88
10587;BME280;5341;47.606;7.576;2023-05-18T10:14:40;99151.63;;;19.84;40.65
10587;BME280;5341;47.606;7.576;2023-05-18T10:17:10;99143.34;;;19.79;40.59
10587;BME280;5341;47.606;7.576;2023-05-18T10:19:39;99135.31;;;19.72;40.24
10587;BME280;5341;47.606;7.576;2023-05-18T10:22:07;99140.59;;;19.67;40.66
10587;BME280;5341;47.606;7.576;2023-05-18T10:24:37;99141.66;;;19.66;41.03
10587;BME280;5341;47.606;7.576;2023-05-18T10:27:07;99141.78;;;19.71;41.56
10587;BME280;5341;47.606;7.576;2023-05-18T10:29:35;99138.63;;;19.86;41.27
10587;BME280;5341;47.606;7.576;2023-05-18T10:32:03;99125.81;;;20.05;39.97
10587;BME280;5341;47.606;7.576;2023-05-18T10:34:32;99125.56;;;20.06;40.32
10587;BME280;5341;47.606;7.576;2023-05-18T10:37:01;99133.94;;;20.05;40.51
10587;BME280;5341;47.606;7.576;2023-05-18T10:39:30;99131.56;;;19.97;40.14
10587;BME280;5341;47.606;7.576;2023-05-18T10:41:59;99137.72;;;19.92;41.32
10587;BME280;5341;47.606;7.576;2023-05-18T10:44:28;99133.34;;;19.91;41.12
10587;BME280;5341;47.606;7.576;2023-05-18T10:46:57;99135.00;;;19.92;41.30
10587;BME280;5341;47.606;7.576;2023-05-18T10:49:25;99132.75;;;19.89;40.59
10587;BME280;5341;47.606;7.576;2023-05-18T10:51:54;99129.66;;;19.85;40.86
10587;BME280;5341;47.606;7.576;2023-05-18T10:54:25;99125.88;;;19.75;40.05
10587;BME280;5341;47.606;7.576;2023-05-18T10:56:55;99132.81;;;19.71;40.88
10587;BME280;5341;47.606;7.576;2023-05-18T10:59:22;99119.00;;;19.72;41.41
10587;BME280;5341;47.606;7.576;2023-05-18T11:01:52;99124.69;;;19.71;41.24
10587;BME280;5341;47.606;7.576;2023-05-18T11:04:37;99117.84;;;19.68;41.78
10587;BME280;5341;47.606;7.576;2023-05-18T11:07:11;99125.16;;;19.68;41.83
10587;BME280;5341;47.606;7.576;2023-05-18T11:09:40;99125.63;;;19.65;41.59
10587;BME280;5341;47.606;7.576;2023-05-18T11:12:11;99120.63;;;19.61;41.22
10587;BME280;5341;47.606;7.576;2023-05-18T11:14:47;99124.66;;;19.59;41.53
10587;BME280;5341;47.606;7.576;2023-05-18T11:17:17;99118.75;;;19.62;42.00
10587;BME280;5341;47.606;7.576;2023-05-18T11:20:10;99123.25;;;19.68;41.63
10587;BME280;5341;47.606;7.576;2023-05-18T11:22:49;99118.31;;;19.65;40.98
10587;BME280;5341;47.606;7.576;2023-05-18T11:25:39;99115.22;;;19.61;41.19
10587;BME280;5341;47.606;7.576;2023-05-18T11:28:09;99114.63;;;19.59;42.27
10587;BME280;5341;47.606;7.576;2023-05-18T11:30:46;99112.97;;;19.58;42.31
10587;BME280;5341;47.606;7.576;2023-05-18T11:33:16;99122.53;;;19.61;41.75
10587;BME280;5341;47.606;7.576;2023-05-18T11:35:57;99117.47;;;19.65;41.92
10587;BME280;5341;47.606;7.576;2023-05-18T11:38:49;99117.84;;;19.68;43.33
10587;BME280;5341;47.606;7.576;2023-05-18T11:41:29;99117.59;;;19.70;43.07
10587;BME280;5341;47.606;7.576;2023-05-18T11:44:14;99115.72;;;19.70;43.58
10587;BME280;5341;47.606;7.576;2023-05-18T11:46:54;99123.03;;;19.70;43.79
10587;BME280;5341;47.606;7.576;2023-05-18T11:49:23;99125.38;;;19.66;43.41
10587;BME280;5341;47.606;7.576;2023-05-18T11:51:55;99119.38;;;19.64;43.48
10587;BME280;5341;47.606;7.576;2023-05-18T11:54:24;99124.19;;;19.62;44.07
10587;BME280;5341;47.606;7.576;2023-05-18T11:56:52;99126.31;;;19.60;44.48
10587;BME280;5341;47.606;7.576;2023-05-18T11:59:30;99124.66;;;19.59;43.94
10587;BME280;5341;47.606;7.576;2023-05-18T12:02:01;99118.16;;;19.60;43.96
10587;BME280;5341;47.606;7.576;2023-05-18T12:04:30;99121.72;;;19.72;44.58
10587;BME280;5341;47.606;7.576;2023-05-18T12:06:59;99111.59;;;19.79;44.44
10587;BME280;5341;47.606;7.576;2023-05-18T12:09:29;99116.91;;;19.86;44.50
10587;BME280;5341;47.606;7.576;2023-05-18T12:11:56;99120.84;;;19.90;43.83
10587;BME280;5341;47.606;7.576;2023-05-18T12:14:25;99114.94;;;19.93;43.83
10587;BME280;5341;47.606;7.576;2023-05-18T12:16:53;99116.09;;;19.97;43.69
10587;BME280;5341;47.606;7.576;2023-05-18T12:19:23;99118.59;;;19.99;43.47
10587;BME280;5341;47.606;7.576;2023-05-18T12:21:51;99111.06;;;20.01;44.24
10587;BME280;5341;47.606;7.576;2023-05-18T12:24:19;99118.72;;;20.04;43.75
10587;BME280;5341;47.606;7.576;2023-05-18T12:26:48;99120.63;;;20.03;42.92
10587;BME280;5341;47.606;7.576;2023-05-18T12:29:16;99126.63;;;20.05;42.89
10587;BME280;5341;47.606;7.576;2023-05-18T12:31:46;99109.53;;;20.05;42.80
10587;BME280;5341;47.606;7.576;2023-05-18T12:34:14;99114.47;;;20.08;42.10
10587;BME280;5341;47.606;7.576;2023-05-18T12:36:50;99109.88;;;20.08;41.83
10587;BME280;5341;47.606;7.576;2023-05-18T12:39:18;99116.50;;;20.12;42.28
10587;BME280;5341;47.606;7.576;2023-05-18T12:41:47;99113.16;;;20.22;42.33
10587;BME280;5341;47.606;7.576;2023-05-18T12:44:15;99114.47;;;20.31;42.73
10587;BME280;5341;47.606;7.576;2023-05-18T12:46:42;99112.97;;;20.35;42.33
10587;BME280;5341;47.606;7.576;2023-05-18T12:49:10;99110.59;;;20.39;41.87
10587;BME280;5341;47.606;7.576;2023-05-18T12:51:38;99109.06;;;20.43;41.89
10587;BME280;5341;47.606;7.576;2023-05-18T12:54:06;99103.41;;;20.44;41.13
10587;BME280;5341;47.606;7.576;2023-05-18T12:57:03;99107.53;;;20.47;41.51
10587;BME280;5341;47.606;7.576;2023-05-18T12:59:46;99104.09;;;20.52;41.81
10587;BME280;5341;47.606;7.576;2023-05-18T13:02:35;99100.97;;;20.71;41.68
10587;BME280;5341;47.606;7.576;2023-05-18T13:05:07;99100.88;;;20.78;41.29
10587;BME280;5341;47.606;7.576;2023-05-18T13:07:44;99099.81;;;20.79;41.37
10587;BME280;5341;47.606;7.576;2023-05-18T13:10:27;99102.50;;;20.79;41.13
10587;BME280;5341;47.606;7.576;2023-05-18T13:13:04;99104.75;;;20.82;41.22
10587;BME280;5341;47.606;7.576;2023-05-18T13:15:45;99105.81;;;20.81;40.76
10587;BME280;5341;47.606;7.576;2023-05-18T13:18:21;99100.28;;;20.76;40.23
10587;BME280;5341;47.606;7.576;2023-05-18T13:21:02;99098.50;;;20.70;39.88
10587;BME280;5341;47.606;7.576;2023-05-18T13:23:37;99097.84;;;20.63;39.70
10587;BME280;5341;47.606;7.576;2023-05-18T13:26:09;99099.16;;;20.60;40.37